Terminal Aerodrome Forecast
Issued by NWS

Home | Current Version | Previous Version | Text Only | Print | Product List | Glossary On
Versions: 1 2 3 4 5 6 7 8 9 10 11 12 13 14 15
855
FTUS43 KILX 191745
TAFCMI
TAF
KCMI 191745Z 1918/2018 21017G23KT P6SM SCT250
     FM200300 20013KT P6SM BKN250 WS018/24050KT
     FM201300 20011KT P6SM OVC012=

USA.gov is the U.S. government's official web portal to all federal, state and local government web resources and services.